Language selection

Features

My Weather Profile Weather Topics  | 

Pacific - North Coast: Past 24 Hour Conditions

 

East Dellwood - 46207

12:00 PM PST 04 December 2020Buoy position: 50.88N 129.93W
Disclaimer

This table is a summary of hourly weather conditions for the past 24 hours.
Please note that these observations might not always be representative of weather conditions over their associated marine area.

Date / Time
(PST)
Wind(knots) Wave height(m) Wave period(s) Pressure(kPa) Air tempC) Water tempC)
04 December 2020
12:00 SE 27 gust 35 5.0 9.0 101.9 10 9
11:00 ESE 27 gust 35 5.2 9.0 102.0 10 9
10:00 SE 29 gust 37 5.2 9.0 102.0 10 9
9:00 SE 31 gust 37 5.2 13.0 102.0 10 9
8:00 SE 31 gust 41 5.4 13.0 101.9 10 9
7:00 SE 33 gust 41 5.3 13.0 101.9 10 9
6:00 SE 29 gust 37 5.0 14.0 101.9 10 9
5:00 SE 31 gust 39 5.6 14.0 102.0 10 9
4:00 SE 27 gust 33 5.1 12.0 102.1 10 9
3:00 SE 23 gust 29 5.4 14.0 102.1 10 9
2:00 SE 23 gust 27 5.5 14.0 102.1 10 9
1:00 SE 22 gust 25 5.9 14.0 102.2 10 9
0:00 SSE 17 gust 22 5.9 14.0 102.2 10 9
03 December 2020
23:00 SSE 16 gust 22 5.3 14.0 102.2 11 9
22:00 S 19 gust 27 5.4 14.0 102.1 11 9
21:00 S 22 gust 27 5.2 12.0 102.0 11 9
20:00 S 25 gust 31 5.0 9.0 101.8 11 9
19:00 S 23 gust 31 5.0 11.0 101.7 11 9
18:00 S 25 gust 33 5.2 9.0 101.6 11 9
17:00 S 29 gust 35 4.7 10.0 101.4 11 9
16:00 S 29 gust 37 4.9 9.0 101.3 11 9
15:00 SSE 23 gust 31 4.6 12.0 101.2 11 9
14:00 SE 25 gust 31 5.1 12.0 101.1 10 9
13:00 SE 25 gust 31 5.3 15.0 101.2 10 9
12:00 SE 29 gust 37 5.3 15.0 101.2 10 9

Zoom-in to make a selection

Map of Pacific - North Coast marine weather areas Middle Nomad - 46004 South Nomad - 46036 Dixon Entrance Central - 46145 South Moresby - 46147 Nanakwa Shoal - 46181 North Hecate Strait - 46183 North Nomad - 46184 South Hecate Strait - 46185 West Sea Otter - 46204 West Dixon Entrance - 46205 East Dellwood - 46207 West Moresby - 46208 Sartine Island Cape St.James Kindakun Rocks Langara Island Masset Municipal Airport Rose Spit Sandspit Airport Bella Bella Airport Bella Coola Airport Bonilla Island Cathedral Point Cumshewa Island Grey Islet Holland Rock Lucy Islands Lightstation Prince Rupert Airport
Legend:
buoy Buoy
land station Land Station

Pacific - North Coast Area

Another Region

What we are doing

Features

Need to travel Alberta Highway 93?

Go prepared with Highway 93 forecasts. Highway regions are available in the Alberta text forecast bulletin between Lake Louise and Jasper. (Photo by: Natalie Anderson)

Date modified: